createdAt,value
2023-03-28T00:00:27.016Z,102632.09
2023-03-28T00:05:50.576Z,102648.06
2023-03-28T00:11:21.389Z,102650.19
2023-03-28T00:16:45.903Z,102653.38
2023-03-28T00:22:08.829Z,102656.34
2023-03-28T00:27:31.333Z,102656.72
2023-03-28T00:32:53.432Z,102645.19
2023-03-28T00:38:15.855Z,102644.31
2023-03-28T00:43:46.250Z,102639.00
2023-03-28T00:49:21.669Z,102640.22
2023-03-28T00:54:44.368Z,102628.91
2023-03-28T01:00:12.655Z,102626.97
2023-03-28T01:05:35.856Z,102618.22
2023-03-28T01:10:58.839Z,102624.81
2023-03-28T01:16:22.557Z,102621.22
2023-03-28T01:22:09.841Z,102605.81
2023-03-28T01:27:44.493Z,102604.16
2023-03-28T01:33:19.965Z,102602.63
2023-03-28T01:39:09.835Z,102603.88
2023-03-28T01:44:38.948Z,102610.69
2023-03-28T01:50:38.315Z,102608.97
2023-03-28T01:56:11.476Z,102612.13
2023-03-28T02:02:06.136Z,102606.81
2023-03-28T02:07:29.174Z,102605.28
2023-03-28T02:12:58.084Z,102603.56
2023-03-28T02:18:24.277Z,102603.78
2023-03-28T02:23:50.664Z,102604.00
2023-03-28T02:29:14.157Z,102599.69
2023-03-28T02:34:36.408Z,102591.38
2023-03-28T02:39:58.147Z,102586.28
2023-03-28T02:45:55.253Z,102589.88
2023-03-28T02:51:19.902Z,102588.56
2023-03-28T02:56:56.668Z,102587.72
2023-03-28T03:02:21.677Z,102591.75
2023-03-28T03:07:43.492Z,102588.31
2023-03-28T03:13:05.340Z,102589.59
2023-03-28T03:18:27.786Z,102591.47
2023-03-28T03:23:50.755Z,102581.47
2023-03-28T03:29:12.717Z,102593.59
2023-03-28T03:34:34.550Z,102581.84
2023-03-28T03:39:56.456Z,102571.00
2023-03-28T03:45:18.339Z,102558.22
2023-03-28T03:50:40.607Z,102561.19
2023-03-28T03:56:06.615Z,102567.78
2023-03-28T04:01:30.480Z,102567.13
2023-03-28T04:06:52.326Z,102559.19
2023-03-28T04:12:15.131Z,102570.28
2023-03-28T04:17:38.080Z,102570.47
2023-03-28T04:23:01.145Z,102555.16
2023-03-28T04:28:28.133Z,102550.66
2023-03-28T04:33:50.022Z,102550.00
2023-03-28T04:39:11.941Z,102546.53
2023-03-28T04:44:33.893Z,102551.22
2023-03-28T04:49:55.731Z,102555.91
2023-03-28T04:55:17.695Z,102558.00
2023-03-28T05:00:39.797Z,102555.44
2023-03-28T05:06:01.864Z,102555.22
2023-03-28T05:11:24.114Z,102559.75
2023-03-28T05:16:46.232Z,102568.31
2023-03-28T05:22:08.077Z,102563.06
2023-03-28T05:27:29.883Z,102567.47
2023-03-28T05:32:52.170Z,102557.75
2023-03-28T05:38:14.869Z,102567.59
2023-03-28T05:43:36.648Z,102564.38
2023-03-28T05:48:58.515Z,102567.13
2023-03-28T05:54:20.504Z,102565.19
2023-03-28T05:59:43.504Z,102567.09
2023-03-28T06:05:05.651Z,102576.44
2023-03-28T06:15:49.467Z,102570.00
2023-03-28T06:21:11.398Z,102584.28
2023-03-28T06:26:33.253Z,102583.63
2023-03-28T06:31:55.183Z,102588.53
2023-03-28T06:37:17.039Z,102580.84
2023-03-28T06:42:38.947Z,102578.03
2023-03-28T06:48:00.961Z,102586.56
2023-03-28T06:53:22.887Z,102586.63
2023-03-28T06:58:44.717Z,102595.66
2023-03-28T07:04:06.556Z,102596.09
2023-03-28T07:09:28.600Z,102591.03
2023-03-28T07:14:51.050Z,102591.94
2023-03-28T07:20:12.889Z,102591.97
2023-03-28T07:25:34.849Z,102589.63
2023-03-28T07:30:56.787Z,102603.94
2023-03-28T07:36:21.284Z,102597.53
2023-03-28T07:41:43.192Z,102591.53
2023-03-28T07:47:05.377Z,102592.44
2023-03-28T07:52:27.336Z,102588.53
2023-03-28T07:57:49.305Z,102587.41
2023-03-28T08:03:12.736Z,102591.41
2023-03-28T08:08:34.811Z,102594.34
2023-03-28T08:13:56.598Z,102598.63
2023-03-28T08:19:18.531Z,102603.34
2023-03-28T08:24:40.716Z,102590.94
2023-03-28T08:30:02.843Z,102576.63
2023-03-28T08:35:25.213Z,102567.06
2023-03-28T08:40:58.865Z,102570.09
2023-03-28T08:46:22.917Z,102575.25
2023-03-28T08:51:49.212Z,102582.97
2023-03-28T08:57:19.821Z,102582.16
2023-03-28T09:02:43.302Z,102573.16
2023-03-28T09:08:35.671Z,102569.97
2023-03-28T09:14:17.686Z,102566.34
2023-03-28T09:19:49.293Z,102551.59
2023-03-28T09:25:16.980Z,102546.69
2023-03-28T09:30:44.768Z,102543.72
2023-03-28T09:36:21.289Z,102544.78
2023-03-28T09:42:12.417Z,102531.72
2023-03-28T09:47:34.544Z,102518.50
2023-03-28T09:52:58.510Z,102519.78
2023-03-28T09:58:20.623Z,102504.84
2023-03-28T10:03:53.248Z,102489.44
2023-03-28T10:09:20.872Z,102492.41
2023-03-28T10:14:47.526Z,102482.59
2023-03-28T10:20:21.806Z,102483.44
2023-03-28T10:25:46.161Z,102484.34
2023-03-28T10:31:20.382Z,102477.91
2023-03-28T10:36:43.797Z,102469.00
2023-03-28T10:42:05.620Z,102460.25
2023-03-28T10:47:28.292Z,102458.75
2023-03-28T10:52:54.650Z,102442.38
2023-03-28T10:58:28.314Z,102431.00
2023-03-28T11:04:11.362Z,102428.53
2023-03-28T11:09:57.541Z,102412.78
2023-03-28T11:15:48.679Z,102405.22
2023-03-28T11:21:41.810Z,102390.72
2023-03-28T11:27:16.041Z,102385.72
2023-03-28T11:32:46.062Z,102367.41
2023-03-28T11:38:22.554Z,102349.97
2023-03-28T11:43:51.822Z,102350.66
2023-03-28T11:49:22.873Z,102335.56
2023-03-28T11:55:14.415Z,102331.50
2023-03-28T12:00:44.405Z,102320.25
2023-03-28T12:06:12.770Z,102314.72
2023-03-28T12:11:42.559Z,102310.50
2023-03-28T12:17:16.473Z,102305.81
2023-03-28T12:22:44.913Z,102297.09
2023-03-28T12:28:22.601Z,102285.34
2023-03-28T12:34:09.227Z,102286.00
2023-03-28T12:39:38.929Z,102266.59
2023-03-28T12:45:06.917Z,102253.78
2023-03-28T12:50:58.871Z,102240.97
2023-03-28T12:56:22.040Z,102235.03
2023-03-28T13:01:49.590Z,102229.25
2023-03-28T13:07:48.648Z,102235.88
2023-03-28T13:13:25.738Z,102237.56
2023-03-28T13:18:49.664Z,102225.22
2023-03-28T13:24:41.107Z,102213.50
2023-03-28T13:30:14.913Z,102210.06
2023-03-28T13:35:49.348Z,102208.81
2023-03-28T13:41:33.775Z,102199.84
2023-03-28T13:46:57.186Z,102199.41
2023-03-28T13:52:22.882Z,102197.69
2023-03-28T13:57:45.412Z,102189.41
2023-03-28T14:03:15.472Z,102170.63
2023-03-28T14:08:37.449Z,102162.13
2023-03-28T14:14:17.502Z,102155.94
2023-03-28T14:19:46.725Z,102141.66
2023-03-28T14:25:13.746Z,102135.25
2023-03-28T14:30:41.319Z,102113.84
2023-03-28T14:36:05.981Z,102108.38
2023-03-28T14:41:30.372Z,102092.09
2023-03-28T14:46:56.923Z,102073.31
2023-03-28T14:52:28.257Z,102072.03
2023-03-28T14:57:53.698Z,102052.34
2023-03-28T15:03:20.780Z,102037.72
2023-03-28T15:08:45.045Z,102042.34
2023-03-28T15:14:29.415Z,102027.38
2023-03-28T15:19:58.832Z,102022.97
2023-03-28T15:25:22.158Z,102015.69
2023-03-28T15:30:45.790Z,101996.81
2023-03-28T15:36:33.447Z,101989.72
2023-03-28T15:42:00.935Z,101980.94
2023-03-28T15:47:26.173Z,101978.53
2023-03-28T15:52:48.006Z,101977.00
2023-03-28T15:58:19.371Z,101969.38
2023-03-28T16:03:41.426Z,101967.00
2023-03-28T16:09:23.954Z,101964.97
2023-03-28T16:14:49.074Z,101966.78
2023-03-28T16:20:22.765Z,101967.03
2023-03-28T16:25:44.706Z,101957.09
2023-03-28T16:31:06.725Z,101961.84
2023-03-28T16:36:28.628Z,101952.78
2023-03-28T16:41:50.427Z,101950.69
2023-03-28T16:47:12.239Z,101955.88
2023-03-28T16:52:38.998Z,101959.91
2023-03-28T16:58:01.275Z,101951.16
2023-03-28T17:03:23.749Z,101957.19
2023-03-28T17:08:46.156Z,101961.31
2023-03-28T17:14:07.972Z,101959.09
2023-03-28T17:19:29.837Z,101958.28
2023-03-28T17:24:51.880Z,101958.34
2023-03-28T17:30:14.016Z,101949.84
2023-03-28T17:35:36.175Z,101936.88
2023-03-28T17:40:58.025Z,101929.41
2023-03-28T17:46:20.079Z,101922.19
2023-03-28T17:51:41.969Z,101928.13
2023-03-28T17:57:05.197Z,101937.25
2023-03-28T18:02:27.526Z,101950.22
2023-03-28T18:07:49.491Z,101950.34
2023-03-28T18:13:11.654Z,101970.63
2023-03-28T18:18:34.195Z,101981.97
2023-03-28T18:23:56.258Z,101977.28
2023-03-28T18:29:18.304Z,101929.75
2023-03-28T18:34:41.669Z,101911.59
2023-03-28T18:40:07.525Z,101911.25
2023-03-28T18:45:29.393Z,101890.03
2023-03-28T18:50:51.272Z,101883.97
2023-03-28T18:56:13.875Z,101863.97
2023-03-28T19:01:36.039Z,101842.91
2023-03-28T19:06:57.858Z,101832.50
2023-03-28T19:12:19.643Z,101822.31
2023-03-28T19:17:41.846Z,101810.84
2023-03-28T19:23:03.890Z,101808.78
2023-03-28T19:28:25.850Z,101816.97
2023-03-28T19:33:47.913Z,101810.44
2023-03-28T19:39:09.863Z,101815.00
2023-03-28T19:44:33.464Z,101825.50
2023-03-28T19:49:55.353Z,101807.16
2023-03-28T19:55:17.565Z,101813.16
2023-03-28T20:00:39.976Z,101805.06
2023-03-28T20:06:08.150Z,101806.38
2023-03-28T20:11:30.088Z,101787.03
2023-03-28T20:16:51.968Z,101799.22
2023-03-28T20:22:14.550Z,101772.94
2023-03-28T20:27:37.478Z,101746.22
2023-03-28T20:32:59.714Z,101746.22
2023-03-28T20:38:22.060Z,101759.03
2023-03-28T20:43:47.413Z,101756.72
2023-03-28T20:49:09.487Z,101743.31
2023-03-28T20:54:31.252Z,101732.63
2023-03-28T20:59:55.503Z,101724.53
2023-03-28T21:05:18.616Z,101722.47
2023-03-28T21:10:40.907Z,101730.66
2023-03-28T21:16:02.749Z,101719.41
2023-03-28T21:21:24.852Z,101707.06
2023-03-28T21:26:47.185Z,101701.78
2023-03-28T21:32:09.621Z,101690.13
2023-03-28T21:37:32.144Z,101691.31
2023-03-28T21:42:54.249Z,101698.66
2023-03-28T21:48:16.906Z,101685.69
2023-03-28T21:53:39.779Z,101694.72
2023-03-28T21:59:01.675Z,101688.16
2023-03-28T22:04:23.574Z,101668.84
2023-03-28T22:09:45.486Z,101669.53
2023-03-28T22:15:08.060Z,101677.69
2023-03-28T22:20:29.959Z,101685.59
2023-03-28T22:25:53.305Z,101676.91
2023-03-28T22:31:17.179Z,101686.53
2023-03-28T22:36:39.045Z,101676.16
2023-03-28T22:42:00.885Z,101669.13
2023-03-28T22:47:30.245Z,101660.41
2023-03-28T22:52:53.174Z,101662.81
2023-03-28T22:58:15.507Z,101656.88
2023-03-28T23:03:37.718Z,101648.78
2023-03-28T23:09:00.841Z,101646.50
2023-03-28T23:14:22.680Z,101635.84
2023-03-28T23:19:45.710Z,101629.06
2023-03-28T23:25:09.341Z,101624.84
2023-03-28T23:30:31.431Z,101617.59
2023-03-28T23:35:53.601Z,101611.69
2023-03-28T23:41:15.460Z,101601.91
2023-03-28T23:46:37.204Z,101598.50
2023-03-28T23:51:58.963Z,101592.34
2023-03-28T23:57:20.866Z,101588.13
